createdAt,value
2022-08-23T00:01:39.072Z,60.38
2022-08-23T00:04:13.807Z,60.79
2022-08-23T00:06:44.052Z,61.11
2022-08-23T00:09:13.207Z,60.92
2022-08-23T00:11:45.927Z,61.30
2022-08-23T00:14:18.492Z,61.09
2022-08-23T00:16:47.675Z,61.44
2022-08-23T00:19:19.845Z,61.63
2022-08-23T00:21:48.988Z,61.34
2022-08-23T00:24:19.925Z,61.86
2022-08-23T00:27:02.112Z,61.52
2022-08-23T00:29:34.036Z,61.79
2022-08-23T00:32:03.458Z,61.98
2022-08-23T00:34:33.221Z,61.93
2022-08-23T00:37:01.751Z,61.94
2022-08-23T00:39:30.366Z,62.18
2022-08-23T00:42:24.842Z,61.80
2022-08-23T00:45:13.581Z,62.09
2022-08-23T00:47:43.270Z,62.05
2022-08-23T00:50:24.484Z,62.03
2022-08-23T00:53:05.839Z,61.71
2022-08-23T00:55:36.288Z,61.27
2022-08-23T00:58:05.539Z,61.45
2022-08-23T01:00:34.226Z,61.17
2022-08-23T01:03:07.154Z,61.24
2022-08-23T01:05:47.695Z,61.25
2022-08-23T01:08:17.312Z,60.95
2022-08-23T01:10:51.669Z,61.19
2022-08-23T01:13:37.597Z,61.06
2022-08-23T01:16:11.045Z,60.69
2022-08-23T01:18:40.859Z,60.86
2022-08-23T01:21:26.464Z,60.82
2022-08-23T01:24:00.526Z,60.39
2022-08-23T01:26:32.031Z,60.64
2022-08-23T01:29:00.657Z,60.13
2022-08-23T01:31:29.835Z,60.37
2022-08-23T01:34:04.471Z,60.42
2022-08-23T01:36:34.216Z,60.30
2022-08-23T01:39:05.014Z,60.32
2022-08-23T01:41:33.890Z,60.46
2022-08-23T01:44:02.581Z,60.45
2022-08-23T01:46:31.055Z,60.41
2022-08-23T01:49:00.001Z,60.52
2022-08-23T01:51:28.453Z,60.32
2022-08-23T01:53:56.881Z,60.21
2022-08-23T01:56:39.254Z,60.22
2022-08-23T01:59:09.179Z,60.25
2022-08-23T02:01:38.758Z,60.09
2022-08-23T02:04:07.618Z,60.01
2022-08-23T02:06:36.184Z,60.61
2022-08-23T02:09:05.976Z,60.76
2022-08-23T02:11:48.730Z,60.95
2022-08-23T02:14:21.934Z,61.04
2022-08-23T02:17:03.663Z,61.07
2022-08-23T02:19:34.461Z,61.51
2022-08-23T02:22:03.544Z,61.54
2022-08-23T02:24:32.216Z,61.96
2022-08-23T02:27:06.160Z,62.26
2022-08-23T02:29:39.059Z,62.76
2022-08-23T02:32:09.678Z,62.66
2022-08-23T02:34:38.980Z,63.10
2022-08-23T02:37:08.162Z,62.98
2022-08-23T02:39:40.001Z,62.96
2022-08-23T02:42:11.571Z,63.10
2022-08-23T02:44:40.730Z,63.47
2022-08-23T02:47:09.297Z,63.19
2022-08-23T02:49:38.545Z,63.44
2022-08-23T02:52:08.496Z,63.56
2022-08-23T02:54:37.450Z,64.03
2022-08-23T02:57:06.964Z,64.30
2022-08-23T02:59:37.347Z,64.64
2022-08-23T03:02:05.964Z,64.82
2022-08-23T03:04:34.375Z,64.37
2022-08-23T03:07:02.777Z,64.33
2022-08-23T03:09:31.210Z,64.64
2022-08-23T03:11:59.677Z,64.83
2022-08-23T03:14:28.228Z,64.78
2022-08-23T03:16:58.499Z,64.35
2022-08-23T03:19:26.905Z,64.47
2022-08-23T03:21:55.460Z,64.66
2022-08-23T03:24:24.284Z,64.57
2022-08-23T03:26:52.711Z,64.58
2022-08-23T03:29:21.171Z,64.89
2022-08-23T03:31:50.702Z,64.99
2022-08-23T03:34:23.646Z,64.88
2022-08-23T03:36:52.051Z,65.02
2022-08-23T03:39:20.488Z,65.32
2022-08-23T03:41:49.346Z,65.41
2022-08-23T03:44:17.940Z,65.44
2022-08-23T03:46:46.428Z,65.65
2022-08-23T03:49:14.957Z,65.45
2022-08-23T03:51:44.763Z,65.72
2022-08-23T03:54:13.202Z,65.74
2022-08-23T03:56:53.581Z,65.73
2022-08-23T03:59:22.390Z,65.97
2022-08-23T04:01:50.866Z,66.03
2022-08-23T04:04:19.358Z,66.10
2022-08-23T04:06:49.535Z,66.06
2022-08-23T04:09:18.692Z,66.12
2022-08-23T04:11:47.057Z,65.95
2022-08-23T04:14:15.757Z,66.05
2022-08-23T04:16:44.529Z,65.92
2022-08-23T04:19:16.246Z,66.00
2022-08-23T04:21:49.733Z,66.17
2022-08-23T04:24:19.088Z,65.95
2022-08-23T04:26:49.461Z,66.07
2022-08-23T04:29:24.860Z,66.18
2022-08-23T04:32:05.620Z,66.49
2022-08-23T04:34:39.962Z,66.59
2022-08-23T04:37:10.980Z,66.67
2022-08-23T04:39:54.080Z,66.39
2022-08-23T04:42:23.802Z,66.32
2022-08-23T04:44:52.530Z,66.54
2022-08-23T04:47:21.474Z,66.30
2022-08-23T04:49:49.871Z,66.49
2022-08-23T04:52:19.891Z,66.68
2022-08-23T04:54:48.450Z,66.49
2022-08-23T04:57:17.228Z,66.68
2022-08-23T04:59:45.641Z,66.58
2022-08-23T05:02:15.011Z,66.54
2022-08-23T05:04:43.376Z,66.64
2022-08-23T05:07:11.959Z,66.32
2022-08-23T05:09:41.737Z,66.58
2022-08-23T05:12:10.281Z,66.62
2022-08-23T05:14:38.905Z,66.38
2022-08-23T05:17:07.920Z,66.86
2022-08-23T05:19:37.585Z,66.67
2022-08-23T05:22:12.819Z,66.88
2022-08-23T05:24:42.625Z,66.51
2022-08-23T05:27:13.675Z,66.69
2022-08-23T05:29:42.324Z,66.72
2022-08-23T05:32:10.780Z,66.78
2022-08-23T05:34:39.429Z,66.81
2022-08-23T05:37:07.868Z,66.75
2022-08-23T05:39:37.350Z,66.50
2022-08-23T05:42:08.964Z,66.81
2022-08-23T05:44:37.910Z,66.67
2022-08-23T05:47:11.175Z,66.70
2022-08-23T05:49:41.125Z,66.63
2022-08-23T05:52:12.993Z,66.62
2022-08-23T05:54:42.132Z,66.63
2022-08-23T05:57:12.068Z,66.71
2022-08-23T05:59:42.026Z,66.66
2022-08-23T06:02:11.257Z,66.70
2022-08-23T06:04:39.767Z,66.99
2022-08-23T06:07:09.899Z,66.89
2022-08-23T06:09:38.694Z,66.26
2022-08-23T06:12:07.374Z,66.55
2022-08-23T06:14:37.203Z,66.72
2022-08-23T06:17:05.927Z,67.05
2022-08-23T06:19:35.246Z,67.19
2022-08-23T06:22:03.732Z,67.01
2022-08-23T06:24:32.209Z,66.67
2022-08-23T06:27:00.703Z,67.18
2022-08-23T06:29:29.642Z,67.09
2022-08-23T06:31:59.381Z,67.55
2022-08-23T06:34:33.434Z,67.77
2022-08-23T06:37:04.928Z,67.57
2022-08-23T06:39:37.352Z,67.37
2022-08-23T06:42:36.539Z,67.76
2022-08-23T06:44:58.423Z,67.81
2022-08-23T06:47:28.597Z,67.45
2022-08-23T06:49:58.196Z,67.04
2022-08-23T06:52:27.621Z,67.24
2022-08-23T06:54:57.606Z,67.42
2022-08-23T06:57:26.548Z,67.60
2022-08-23T06:59:55.086Z,67.63
2022-08-23T07:02:24.182Z,67.90
2022-08-23T07:04:55.911Z,67.92
2022-08-23T07:07:24.702Z,67.48
2022-08-23T07:10:11.054Z,67.55
2022-08-23T07:12:43.687Z,67.79
2022-08-23T07:15:13.555Z,67.49
2022-08-23T07:17:42.087Z,66.32
2022-08-23T07:20:12.635Z,66.03
2022-08-23T07:22:41.205Z,65.92
2022-08-23T07:25:10.148Z,66.39
2022-08-23T07:27:39.530Z,66.85
2022-08-23T07:30:09.688Z,66.76
2022-08-23T07:32:38.193Z,66.66
2022-08-23T07:35:08.216Z,65.95
2022-08-23T07:37:38.425Z,65.29
2022-08-23T07:40:09.233Z,64.56
2022-08-23T07:42:37.693Z,64.36
2022-08-23T07:45:10.011Z,64.57
2022-08-23T07:47:38.629Z,64.38
2022-08-23T07:50:08.672Z,63.35
2022-08-23T07:52:38.740Z,62.57
2022-08-23T07:55:08.919Z,61.71
2022-08-23T07:57:37.591Z,60.61
2022-08-23T08:00:07.996Z,59.19
2022-08-23T08:02:36.490Z,58.95
2022-08-23T08:05:05.710Z,57.47
2022-08-23T08:07:37.624Z,57.48
2022-08-23T08:10:09.326Z,57.68
2022-08-23T08:12:38.228Z,56.77
2022-08-23T08:15:08.002Z,56.13
2022-08-23T08:17:36.406Z,56.06
2022-08-23T08:20:06.697Z,54.97
2022-08-23T08:22:35.494Z,55.01
2022-08-23T08:25:03.995Z,55.53
2022-08-23T08:27:34.015Z,55.16
2022-08-23T08:30:04.802Z,54.13
2022-08-23T08:32:33.417Z,54.19
2022-08-23T08:35:02.466Z,54.17
2022-08-23T08:37:32.130Z,54.57
2022-08-23T08:40:01.373Z,55.43
2022-08-23T08:42:57.350Z,55.82
2022-08-23T08:45:34.129Z,56.08
2022-08-23T08:48:13.585Z,56.12
2022-08-23T08:50:48.931Z,56.03
2022-08-23T08:53:25.504Z,55.92
2022-08-23T08:55:59.599Z,56.19
2022-08-23T08:58:42.665Z,56.04
2022-08-23T09:01:11.223Z,56.42
2022-08-23T09:03:43.082Z,56.19
2022-08-23T09:06:23.336Z,56.55
2022-08-23T09:09:14.305Z,56.86
2022-08-23T09:11:59.695Z,56.33
2022-08-23T09:14:47.103Z,55.79
2022-08-23T09:17:25.212Z,54.70
2022-08-23T09:19:57.856Z,54.87
2022-08-23T09:22:35.641Z,55.08
2022-08-23T09:25:10.314Z,55.41
2022-08-23T09:27:39.471Z,55.93
2022-08-23T09:30:13.020Z,55.83
2022-08-23T09:32:45.539Z,55.79
2022-08-23T09:35:18.366Z,56.28
2022-08-23T09:38:16.335Z,56.29
2022-08-23T09:40:50.637Z,56.24
2022-08-23T09:43:26.194Z,56.44
2022-08-23T09:46:00.941Z,56.54
2022-08-23T09:48:41.594Z,56.41
2022-08-23T09:51:21.026Z,56.35
2022-08-23T09:54:03.695Z,56.25
2022-08-23T09:56:36.760Z,56.41
2022-08-23T09:59:20.596Z,55.85
2022-08-23T10:02:00.703Z,56.17
2022-08-23T10:04:43.999Z,56.12
2022-08-23T10:07:36.428Z,56.10
2022-08-23T10:10:29.416Z,55.80
2022-08-23T10:12:59.179Z,55.58
2022-08-23T10:15:49.448Z,55.66
2022-08-23T10:18:36.444Z,55.95
2022-08-23T10:21:12.018Z,55.45
2022-08-23T10:23:52.227Z,54.88
2022-08-23T10:26:30.811Z,54.76
2022-08-23T10:29:27.499Z,54.76
2022-08-23T10:32:06.398Z,54.64
2022-08-23T10:34:55.767Z,53.62
2022-08-23T10:37:50.996Z,53.43
2022-08-23T10:40:29.496Z,53.56
2022-08-23T10:43:14.929Z,52.34
2022-08-23T10:45:47.658Z,51.72
2022-08-23T10:48:27.449Z,51.14
2022-08-23T10:51:02.397Z,50.42
2022-08-23T10:53:46.237Z,50.63
2022-08-23T10:56:19.331Z,50.88
2022-08-23T10:58:52.084Z,49.81
2022-08-23T11:01:26.506Z,49.57
2022-08-23T11:04:04.085Z,48.76
2022-08-23T11:06:52.224Z,48.72
2022-08-23T11:09:52.222Z,48.61
2022-08-23T11:12:27.315Z,47.01
2022-08-23T11:15:26.007Z,46.78
2022-08-23T11:18:09.093Z,46.51
2022-08-23T11:21:11.206Z,47.50
2022-08-23T11:23:55.533Z,48.16
2022-08-23T11:27:06.585Z,47.63
2022-08-23T11:29:43.528Z,47.93
2022-08-23T11:32:33.308Z,48.30
2022-08-23T11:35:23.861Z,47.58
2022-08-23T11:37:59.861Z,46.85
2022-08-23T11:43:43.511Z,44.86
2022-08-23T11:46:32.911Z,46.18
2022-08-23T11:49:32.059Z,45.95
2022-08-23T11:52:16.989Z,44.65
2022-08-23T11:55:31.801Z,46.27
2022-08-23T11:58:19.729Z,45.71
2022-08-23T12:01:07.663Z,44.92
2022-08-23T12:03:53.968Z,45.32
2022-08-23T12:06:50.537Z,45.55
2022-08-23T12:09:54.249Z,45.02
2022-08-23T12:12:40.069Z,44.63
2022-08-23T12:15:13.449Z,42.83
2022-08-23T12:18:18.309Z,42.75
2022-08-23T12:20:50.805Z,41.56
2022-08-23T12:23:22.247Z,38.59
2022-08-23T12:26:06.047Z,38.75
2022-08-23T12:28:43.578Z,36.98
2022-08-23T12:31:28.805Z,35.73
2022-08-23T12:34:18.696Z,35.91
2022-08-23T12:36:58.214Z,35.07
2022-08-23T12:39:32.790Z,34.93
2022-08-23T12:42:10.779Z,35.24
2022-08-23T12:44:39.436Z,34.88
2022-08-23T12:47:16.912Z,34.35
2022-08-23T12:49:58.645Z,35.42
2022-08-23T12:52:32.852Z,35.50
2022-08-23T12:55:01.672Z,35.48
2022-08-23T12:57:37.610Z,34.81
2022-08-23T13:00:18.975Z,34.75
2022-08-23T13:02:57.561Z,32.04
2022-08-23T13:05:41.780Z,31.71
2022-08-23T13:08:15.082Z,31.21
2022-08-23T13:10:46.297Z,30.92
2022-08-23T13:13:20.285Z,29.65
2022-08-23T13:15:54.022Z,28.45
2022-08-23T13:18:33.481Z,28.71
2022-08-23T13:21:39.534Z,29.38
2022-08-23T13:24:38.598Z,30.25
2022-08-23T13:27:23.651Z,30.07
2022-08-23T13:29:59.350Z,29.32
2022-08-23T13:32:36.798Z,29.17
2022-08-23T13:35:32.362Z,30.63
2022-08-23T13:38:21.568Z,29.17
2022-08-23T13:41:02.942Z,28.86
2022-08-23T13:43:38.491Z,29.58
2022-08-23T13:46:18.050Z,30.06
2022-08-23T13:48:55.868Z,29.44
2022-08-23T13:51:37.096Z,30.23
2022-08-23T13:54:11.562Z,31.08
2022-08-23T13:56:47.223Z,31.89
2022-08-23T13:59:31.114Z,32.12
2022-08-23T14:02:02.699Z,32.79
2022-08-23T14:04:31.231Z,33.13
2022-08-23T14:06:59.690Z,33.57
2022-08-23T14:09:29.672Z,34.60
2022-08-23T14:12:04.033Z,35.40
2022-08-23T14:14:35.779Z,36.03
2022-08-23T14:17:05.174Z,36.68
2022-08-23T14:22:26.907Z,37.64
2022-08-23T14:24:56.671Z,38.23
2022-08-23T14:27:25.197Z,38.86
2022-08-23T14:29:54.418Z,39.16
2022-08-23T14:32:22.847Z,39.75
2022-08-23T14:34:51.330Z,39.92
2022-08-23T14:38:00.464Z,40.76
2022-08-23T14:40:11.336Z,40.93
2022-08-23T14:42:39.803Z,41.29
2022-08-23T14:45:10.469Z,41.66
2022-08-23T14:47:39.133Z,41.75
2022-08-23T14:50:12.533Z,41.67
2022-08-23T14:52:45.742Z,42.13
2022-08-23T14:55:17.327Z,42.36
2022-08-23T14:57:45.720Z,42.28
2022-08-23T15:00:15.905Z,42.41
2022-08-23T15:02:45.892Z,42.54
2022-08-23T15:05:15.650Z,42.58
2022-08-23T15:07:44.632Z,42.78
2022-08-23T15:15:54.804Z,42.70
2022-08-23T15:18:23.410Z,42.28
2022-08-23T15:20:52.478Z,42.83
2022-08-23T15:23:21.661Z,42.97
2022-08-23T15:25:52.190Z,42.58
2022-08-23T15:28:23.060Z,42.87
2022-08-23T15:30:52.522Z,42.87
2022-08-23T15:33:26.842Z,43.24
2022-08-23T15:36:01.893Z,42.77
2022-08-23T15:38:32.824Z,43.38
2022-08-23T15:41:02.725Z,43.13
2022-08-23T15:43:34.683Z,43.24
2022-08-23T15:46:07.565Z,43.20
2022-08-23T15:48:39.274Z,43.55
2022-08-23T15:51:08.143Z,43.29
2022-08-23T15:53:39.445Z,43.73
2022-08-23T15:56:12.929Z,43.70
2022-08-23T15:58:42.126Z,43.86
2022-08-23T16:01:12.111Z,43.88
2022-08-23T16:03:43.466Z,43.66
2022-08-23T16:06:13.587Z,43.85
2022-08-23T16:08:47.149Z,44.33
2022-08-23T16:11:16.996Z,44.33
2022-08-23T16:13:47.922Z,44.16
2022-08-23T16:16:22.435Z,44.36
2022-08-23T16:18:53.609Z,44.26
2022-08-23T16:21:23.292Z,44.27
2022-08-23T16:23:51.859Z,44.08
2022-08-23T16:26:34.588Z,44.16
2022-08-23T16:29:06.194Z,44.26
2022-08-23T16:31:38.874Z,44.23
2022-08-23T16:34:11.780Z,44.62
2022-08-23T16:36:43.487Z,44.88
2022-08-23T16:39:12.801Z,45.08
2022-08-23T16:41:43.026Z,45.39
2022-08-23T16:44:11.571Z,45.44
2022-08-23T16:46:42.966Z,45.66
2022-08-23T16:49:12.595Z,45.96
2022-08-23T16:51:41.384Z,46.27
2022-08-23T16:54:10.172Z,46.31
2022-08-23T16:56:41.946Z,46.74
2022-08-23T16:59:12.621Z,46.98
2022-08-23T17:01:47.078Z,47.07
2022-08-23T17:04:15.825Z,47.08
2022-08-23T17:06:44.482Z,47.55
2022-08-23T17:09:13.276Z,47.42
2022-08-23T17:11:45.661Z,47.95
2022-08-23T17:14:14.571Z,48.25
2022-08-23T17:16:45.134Z,48.36
2022-08-23T17:19:14.851Z,49.02
2022-08-23T17:21:44.963Z,48.86
2022-08-23T17:24:13.405Z,49.22
2022-08-23T17:26:43.250Z,49.25
2022-08-23T17:29:12.579Z,49.16
2022-08-23T17:31:41.751Z,49.47
2022-08-23T17:34:10.343Z,49.76
2022-08-23T17:36:46.186Z,49.69
2022-08-23T17:39:20.275Z,50.06
2022-08-23T17:41:50.213Z,50.36
2022-08-23T17:44:20.431Z,50.34
2022-08-23T17:46:49.875Z,50.73
2022-08-23T17:49:20.244Z,50.50
2022-08-23T17:51:49.376Z,50.61
2022-08-23T17:54:18.542Z,50.69
2022-08-23T17:56:50.411Z,50.77
2022-08-23T17:59:21.346Z,51.21
2022-08-23T18:01:50.089Z,51.35
2022-08-23T18:04:18.650Z,51.33
2022-08-23T18:06:47.762Z,51.22
2022-08-23T18:09:16.593Z,51.40
2022-08-23T18:11:45.276Z,51.26
2022-08-23T18:14:13.723Z,51.44
2022-08-23T18:16:45.607Z,51.70
2022-08-23T18:19:15.050Z,51.83
2022-08-23T18:21:45.133Z,51.97
2022-08-23T18:24:14.712Z,51.95
2022-08-23T18:27:02.398Z,51.86
2022-08-23T18:29:34.714Z,52.01
2022-08-23T18:32:07.314Z,52.31
2022-08-23T18:34:37.091Z,52.50
2022-08-23T18:37:06.070Z,52.64
2022-08-23T18:39:35.143Z,52.59
2022-08-23T18:42:06.709Z,52.65
2022-08-23T18:44:35.164Z,52.69
2022-08-23T18:47:05.996Z,53.09
2022-08-23T18:49:36.500Z,53.10
2022-08-23T18:52:06.007Z,53.06
2022-08-23T18:54:34.854Z,53.50
2022-08-23T18:57:03.946Z,53.23
2022-08-23T18:59:32.814Z,53.46
2022-08-23T19:02:01.742Z,53.49
2022-08-23T19:04:32.241Z,53.59
2022-08-23T19:07:01.108Z,53.57
2022-08-23T19:09:30.122Z,53.55
2022-08-23T19:12:00.639Z,53.62
2022-08-23T19:14:30.006Z,53.67
2022-08-23T19:16:58.841Z,53.48
2022-08-23T19:19:28.128Z,53.50
2022-08-23T19:21:58.425Z,53.61
2022-08-23T19:24:29.097Z,53.75
2022-08-23T19:26:57.996Z,53.71
2022-08-23T19:29:27.098Z,53.70
2022-08-23T19:31:55.938Z,53.66
2022-08-23T19:34:24.753Z,53.53
2022-08-23T19:37:00.667Z,53.73
2022-08-23T19:39:32.301Z,53.66
2022-08-23T19:42:01.233Z,53.90
2022-08-23T19:44:31.418Z,53.93
2022-08-23T19:47:00.347Z,53.86
2022-08-23T19:49:29.645Z,53.83
2022-08-23T19:51:58.680Z,54.02
2022-08-23T19:54:28.624Z,54.15
2022-08-23T19:57:01.375Z,54.26
2022-08-23T19:59:35.143Z,54.38
2022-08-23T20:02:04.686Z,54.54
2022-08-23T20:04:35.340Z,54.69
2022-08-23T20:07:05.648Z,55.01
2022-08-23T20:09:35.287Z,54.72
2022-08-23T20:12:06.417Z,54.89
2022-08-23T20:14:35.380Z,54.86
2022-08-23T20:17:07.810Z,54.93
2022-08-23T20:19:36.573Z,55.18
2022-08-23T20:22:23.598Z,54.80
2022-08-23T20:24:53.120Z,54.82
2022-08-23T20:27:30.616Z,54.55
2022-08-23T20:30:01.472Z,54.67
2022-08-23T20:32:31.556Z,54.52
2022-08-23T20:35:00.768Z,54.73
2022-08-23T20:37:29.721Z,54.77
2022-08-23T20:39:58.325Z,54.84
2022-08-23T20:42:28.607Z,54.68
2022-08-23T20:44:57.236Z,54.56
2022-08-23T20:47:25.774Z,54.43
2022-08-23T20:49:54.397Z,54.39
2022-08-23T20:52:22.823Z,54.23
2022-08-23T20:54:52.207Z,54.31
2022-08-23T20:57:20.770Z,54.09
2022-08-23T20:59:50.652Z,54.19
2022-08-23T21:02:19.270Z,54.28
2022-08-23T21:04:47.891Z,54.09
2022-08-23T21:07:16.421Z,54.03
2022-08-23T21:09:45.046Z,54.02
2022-08-23T21:12:13.679Z,54.00
2022-08-23T21:14:42.134Z,53.88
2022-08-23T21:17:12.066Z,53.95
2022-08-23T21:19:40.564Z,53.74
2022-08-23T21:22:09.006Z,53.54
2022-08-23T21:24:38.535Z,53.37
2022-08-23T21:27:09.616Z,53.72
2022-08-23T21:29:38.685Z,53.77
2022-08-23T21:32:07.615Z,53.48
2022-08-23T21:34:37.676Z,53.79
2022-08-23T21:37:06.577Z,53.45
2022-08-23T21:39:34.982Z,53.41
2022-08-23T21:42:14.184Z,53.42
2022-08-23T21:44:43.802Z,53.34
2022-08-23T21:47:12.524Z,53.33
2022-08-23T21:49:42.342Z,53.40
2022-08-23T21:52:10.753Z,53.26
2022-08-23T21:54:43.392Z,53.09
2022-08-23T21:57:12.365Z,53.24
2022-08-23T21:59:41.420Z,53.46
2022-08-23T22:02:10.134Z,53.29
2022-08-23T22:04:38.688Z,53.19
2022-08-23T22:07:08.475Z,53.17
2022-08-23T22:09:36.968Z,53.21
2022-08-23T22:12:06.442Z,53.20
2022-08-23T22:14:35.428Z,53.30
2022-08-23T22:17:03.988Z,53.29
2022-08-23T22:19:32.701Z,53.50
2022-08-23T22:22:01.151Z,53.28
2022-08-23T22:24:31.635Z,53.37
2022-08-23T22:27:00.005Z,53.36
2022-08-23T22:29:28.959Z,53.59
2022-08-23T22:31:57.436Z,53.62
2022-08-23T22:34:26.070Z,53.48
2022-08-23T22:36:55.981Z,53.49
2022-08-23T22:39:24.824Z,53.65
2022-08-23T22:41:55.485Z,53.57
2022-08-23T22:44:24.011Z,53.63
2022-08-23T22:46:52.831Z,53.55
2022-08-23T22:49:21.267Z,53.63
2022-08-23T22:51:55.093Z,53.69
2022-08-23T22:54:24.753Z,53.73
2022-08-23T22:56:55.589Z,54.01
2022-08-23T22:59:27.592Z,53.92
2022-08-23T23:02:00.952Z,53.84
2022-08-23T23:04:33.815Z,54.13
2022-08-23T23:07:02.751Z,54.12
2022-08-23T23:09:30.394Z,54.25
2022-08-23T23:12:00.273Z,54.27
2022-08-23T23:14:28.852Z,54.29
2022-08-23T23:16:57.443Z,54.37
2022-08-23T23:19:43.256Z,54.48
2022-08-23T23:22:14.496Z,54.32
2022-08-23T23:24:42.889Z,54.33
2022-08-23T23:27:12.782Z,54.08
2022-08-23T23:29:42.165Z,54.22
2022-08-23T23:32:10.629Z,54.19
2022-08-23T23:34:39.064Z,54.06
2022-08-23T23:37:07.536Z,54.16
2022-08-23T23:39:35.929Z,54.25
2022-08-23T23:42:04.565Z,53.95
2022-08-23T23:44:34.515Z,54.00
2022-08-23T23:47:03.598Z,54.14
2022-08-23T23:49:33.674Z,54.24
2022-08-23T23:52:04.319Z,54.18
2022-08-23T23:54:33.953Z,53.96
2022-08-23T23:57:02.754Z,54.04
2022-08-23T23:59:31.122Z,54.07
